sensor_id;sensor_type;location;lat;lon;timestamp;temperature;humidity
47600;DHT22;33323;52.124;6.018;2022-12-18T00:03:58;-4.60;99.90
47600;DHT22;33323;52.124;6.018;2022-12-18T00:06:26;-4.60;99.90
47600;DHT22;33323;52.124;6.018;2022-12-18T00:08:57;-4.70;99.90
47600;DHT22;33323;52.124;6.018;2022-12-18T00:11:27;-4.50;99.90
47600;DHT22;33323;52.124;6.018;2022-12-18T00:13:58;-4.50;99.90
47600;DHT22;33323;52.124;6.018;2022-12-18T00:16:27;-4.60;99.90
47600;DHT22;33323;52.124;6.018;2022-12-18T00:18:58;-4.70;99.90
47600;DHT22;33323;52.124;6.018;2022-12-18T00:21:27;-4.70;99.90
47600;DHT22;33323;52.124;6.018;2022-12-18T00:23:55;-4.80;99.90
47600;DHT22;33323;52.124;6.018;2022-12-18T00:26:25;-4.90;99.90
47600;DHT22;33323;52.124;6.018;2022-12-18T00:29:01;-5.00;99.90
47600;DHT22;33323;52.124;6.018;2022-12-18T00:31:37;-5.10;99.90
47600;DHT22;33323;52.124;6.018;2022-12-18T00:34:05;-5.20;99.90
47600;DHT22;33323;52.124;6.018;2022-12-18T00:36:33;-5.20;99.90
47600;DHT22;33323;52.124;6.018;2022-12-18T00:39:03;-5.20;99.90
47600;DHT22;33323;52.124;6.018;2022-12-18T00:41:31;-5.10;99.90
47600;DHT22;33323;52.124;6.018;2022-12-18T00:44:18;-5.20;99.90
47600;DHT22;33323;52.124;6.018;2022-12-18T00:46:46;-5.30;99.90
47600;DHT22;33323;52.124;6.018;2022-12-18T00:49:18;-5.30;99.90
47600;DHT22;33323;52.124;6.018;2022-12-18T00:51:47;-5.40;99.90
47600;DHT22;33323;52.124;6.018;2022-12-18T00:54:14;-5.40;99.90
47600;DHT22;33323;52.124;6.018;2022-12-18T00:56:42;-5.30;99.90
47600;DHT22;33323;52.124;6.018;2022-12-18T00:59:18;-5.30;99.90
47600;DHT22;33323;52.124;6.018;2022-12-18T01:01:45;-5.30;99.90
47600;DHT22;33323;52.124;6.018;2022-12-18T01:04:13;-5.30;99.90
47600;DHT22;33323;52.124;6.018;2022-12-18T01:06:44;-5.30;99.90
47600;DHT22;33323;52.124;6.018;2022-12-18T01:09:11;-5.30;99.90
47600;DHT22;33323;52.124;6.018;2022-12-18T01:11:38;-5.30;99.90
47600;DHT22;33323;52.124;6.018;2022-12-18T01:14:06;-5.30;99.90
47600;DHT22;33323;52.124;6.018;2022-12-18T01:16:32;-5.30;99.90
47600;DHT22;33323;52.124;6.018;2022-12-18T01:18:59;-5.30;99.90
47600;DHT22;33323;52.124;6.018;2022-12-18T01:21:26;-5.40;99.90
47600;DHT22;33323;52.124;6.018;2022-12-18T01:23:55;-5.40;99.90
47600;DHT22;33323;52.124;6.018;2022-12-18T01:26:24;-5.50;99.90
47600;DHT22;33323;52.124;6.018;2022-12-18T01:28:54;-5.50;99.90
47600;DHT22;33323;52.124;6.018;2022-12-18T01:31:28;-5.50;99.90
47600;DHT22;33323;52.124;6.018;2022-12-18T01:33:57;-5.50;99.90
47600;DHT22;33323;52.124;6.018;2022-12-18T01:36:29;-5.60;99.90
47600;DHT22;33323;52.124;6.018;2022-12-18T01:38:59;-5.50;99.90
47600;DHT22;33323;52.124;6.018;2022-12-18T01:41:29;-5.60;99.90
47600;DHT22;33323;52.124;6.018;2022-12-18T01:47:47;-5.60;99.90
47600;DHT22;33323;52.124;6.018;2022-12-18T01:51:02;-5.60;99.90
47600;DHT22;33323;52.124;6.018;2022-12-18T01:53:14;-5.60;99.90
47600;DHT22;33323;52.124;6.018;2022-12-18T01:55:53;-5.60;99.90
47600;DHT22;33323;52.124;6.018;2022-12-18T01:58:23;-5.60;99.90
47600;DHT22;33323;52.124;6.018;2022-12-18T02:01:00;-5.60;99.90
47600;DHT22;33323;52.124;6.018;2022-12-18T02:03:27;-5.70;99.90
47600;DHT22;33323;52.124;6.018;2022-12-18T02:06:13;-5.70;99.90
47600;DHT22;33323;52.124;6.018;2022-12-18T02:08:57;-5.70;99.90
47600;DHT22;33323;52.124;6.018;2022-12-18T02:12:16;-5.60;99.90
47600;DHT22;33323;52.124;6.018;2022-12-18T02:15:25;-5.50;99.90
47600;DHT22;33323;52.124;6.018;2022-12-18T02:18:02;-5.50;99.90
47600;DHT22;33323;52.124;6.018;2022-12-18T02:20:55;-5.60;99.90
47600;DHT22;33323;52.124;6.018;2022-12-18T02:26:48;-5.70;99.90
47600;DHT22;33323;52.124;6.018;2022-12-18T02:29:27;-5.70;99.90
47600;DHT22;33323;52.124;6.018;2022-12-18T02:32:00;-5.80;99.90
47600;DHT22;33323;52.124;6.018;2022-12-18T02:34:32;-5.70;99.90
47600;DHT22;33323;52.124;6.018;2022-12-18T02:37:05;-5.80;99.90
47600;DHT22;33323;52.124;6.018;2022-12-18T02:39:38;-5.80;99.90
47600;DHT22;33323;52.124;6.018;2022-12-18T02:42:11;-5.80;99.90
47600;DHT22;33323;52.124;6.018;2022-12-18T02:44:48;-5.90;99.90
47600;DHT22;33323;52.124;6.018;2022-12-18T02:47:22;-6.00;99.90
47600;DHT22;33323;52.124;6.018;2022-12-18T02:50:01;-6.00;99.90
47600;DHT22;33323;52.124;6.018;2022-12-18T02:52:42;-6.10;99.90
47600;DHT22;33323;52.124;6.018;2022-12-18T02:58:45;-6.20;99.90
47600;DHT22;33323;52.124;6.018;2022-12-18T03:01:43;-6.20;99.90
47600;DHT22;33323;52.124;6.018;2022-12-18T03:04:34;-6.20;99.90
47600;DHT22;33323;52.124;6.018;2022-12-18T03:07:12;-6.30;99.90
47600;DHT22;33323;52.124;6.018;2022-12-18T03:09:46;-6.30;99.90
47600;DHT22;33323;52.124;6.018;2022-12-18T03:12:22;-6.30;99.90
47600;DHT22;33323;52.124;6.018;2022-12-18T03:15:04;-6.40;99.90
47600;DHT22;33323;52.124;6.018;2022-12-18T03:17:48;-6.40;99.90
47600;DHT22;33323;52.124;6.018;2022-12-18T03:20:19;-6.40;99.90
47600;DHT22;33323;52.124;6.018;2022-12-18T03:22:51;-6.50;99.90
47600;DHT22;33323;52.124;6.018;2022-12-18T03:25:24;-6.40;99.90
47600;DHT22;33323;52.124;6.018;2022-12-18T03:27:56;-6.20;99.90
47600;DHT22;33323;52.124;6.018;2022-12-18T03:30:26;-6.20;99.90
47600;DHT22;33323;52.124;6.018;2022-12-18T03:33:17;-6.30;99.90
47600;DHT22;33323;52.124;6.018;2022-12-18T03:35:48;-6.40;99.90
47600;DHT22;33323;52.124;6.018;2022-12-18T03:38:17;-6.50;99.90
47600;DHT22;33323;52.124;6.018;2022-12-18T03:44:15;-6.40;99.90
47600;DHT22;33323;52.124;6.018;2022-12-18T03:47:07;-6.20;99.90
47600;DHT22;33323;52.124;6.018;2022-12-18T03:55:21;-6.10;99.90
47600;DHT22;33323;52.124;6.018;2022-12-18T03:57:54;-6.10;99.90
47600;DHT22;33323;52.124;6.018;2022-12-18T04:00:23;-6.20;99.90
47600;DHT22;33323;52.124;6.018;2022-12-18T04:03:00;-6.00;99.90
47600;DHT22;33323;52.124;6.018;2022-12-18T04:05:35;-6.00;99.90
47600;DHT22;33323;52.124;6.018;2022-12-18T04:08:04;-6.00;99.90
47600;DHT22;33323;52.124;6.018;2022-12-18T04:10:36;-6.00;99.90
47600;DHT22;33323;52.124;6.018;2022-12-18T04:13:03;-5.90;99.90
47600;DHT22;33323;52.124;6.018;2022-12-18T04:15:33;-5.90;99.90
47600;DHT22;33323;52.124;6.018;2022-12-18T04:18:02;-5.90;99.90
47600;DHT22;33323;52.124;6.018;2022-12-18T04:20:38;-5.90;99.90
47600;DHT22;33323;52.124;6.018;2022-12-18T04:23:04;-6.00;99.90
47600;DHT22;33323;52.124;6.018;2022-12-18T04:25:32;-5.90;99.90
47600;DHT22;33323;52.124;6.018;2022-12-18T04:28:09;-5.80;99.90
47600;DHT22;33323;52.124;6.018;2022-12-18T04:30:37;-5.70;99.90
47600;DHT22;33323;52.124;6.018;2022-12-18T04:33:09;-5.70;99.90
47600;DHT22;33323;52.124;6.018;2022-12-18T04:35:39;-5.70;99.90
47600;DHT22;33323;52.124;6.018;2022-12-18T04:38:07;-5.80;99.90
47600;DHT22;33323;52.124;6.018;2022-12-18T04:40:35;-5.90;99.90
47600;DHT22;33323;52.124;6.018;2022-12-18T04:43:09;-5.90;99.90
47600;DHT22;33323;52.124;6.018;2022-12-18T04:45:37;-5.80;99.90
47600;DHT22;33323;52.124;6.018;2022-12-18T04:48:06;-5.80;99.90
47600;DHT22;33323;52.124;6.018;2022-12-18T04:50:33;-5.80;99.90
47600;DHT22;33323;52.124;6.018;2022-12-18T04:53:00;-5.70;99.90
47600;DHT22;33323;52.124;6.018;2022-12-18T04:55:27;-5.70;99.90
47600;DHT22;33323;52.124;6.018;2022-12-18T04:57:54;-5.70;99.90
47600;DHT22;33323;52.124;6.018;2022-12-18T05:00:22;-5.70;99.90
47600;DHT22;33323;52.124;6.018;2022-12-18T05:02:49;-5.70;99.90
47600;DHT22;33323;52.124;6.018;2022-12-18T05:05:16;-5.80;99.90
47600;DHT22;33323;52.124;6.018;2022-12-18T05:07:43;-5.90;99.90
47600;DHT22;33323;52.124;6.018;2022-12-18T05:10:11;-5.90;99.90
47600;DHT22;33323;52.124;6.018;2022-12-18T05:12:38;-5.80;99.90
47600;DHT22;33323;52.124;6.018;2022-12-18T05:15:30;-5.90;99.90
47600;DHT22;33323;52.124;6.018;2022-12-18T05:17:59;-5.80;99.90
47600;DHT22;33323;52.124;6.018;2022-12-18T05:20:27;-5.80;99.90
47600;DHT22;33323;52.124;6.018;2022-12-18T05:22:54;-5.80;99.90
47600;DHT22;33323;52.124;6.018;2022-12-18T05:25:22;-5.90;99.90
47600;DHT22;33323;52.124;6.018;2022-12-18T05:27:50;-6.10;99.90
47600;DHT22;33323;52.124;6.018;2022-12-18T05:30:17;-6.10;99.90
47600;DHT22;33323;52.124;6.018;2022-12-18T05:32:44;-6.00;99.90
47600;DHT22;33323;52.124;6.018;2022-12-18T05:35:11;-6.10;99.90
47600;DHT22;33323;52.124;6.018;2022-12-18T05:37:38;-6.30;99.90
47600;DHT22;33323;52.124;6.018;2022-12-18T05:40:10;-6.40;99.90
47600;DHT22;33323;52.124;6.018;2022-12-18T05:42:37;-6.40;99.90
47600;DHT22;33323;52.124;6.018;2022-12-18T05:45:05;-6.50;99.90
47600;DHT22;33323;52.124;6.018;2022-12-18T05:47:33;-6.60;99.90
47600;DHT22;33323;52.124;6.018;2022-12-18T05:49:59;-6.70;99.90
47600;DHT22;33323;52.124;6.018;2022-12-18T05:52:26;-6.60;99.90
47600;DHT22;33323;52.124;6.018;2022-12-18T05:54:53;-6.70;99.90
47600;DHT22;33323;52.124;6.018;2022-12-18T05:57:20;-6.70;99.90
47600;DHT22;33323;52.124;6.018;2022-12-18T05:59:47;-6.70;99.90
47600;DHT22;33323;52.124;6.018;2022-12-18T06:02:14;-6.70;99.90
47600;DHT22;33323;52.124;6.018;2022-12-18T06:04:41;-6.70;99.90
47600;DHT22;33323;52.124;6.018;2022-12-18T06:07:08;-6.80;99.90
47600;DHT22;33323;52.124;6.018;2022-12-18T06:09:35;-6.90;99.90
47600;DHT22;33323;52.124;6.018;2022-12-18T06:12:02;-6.90;99.90
47600;DHT22;33323;52.124;6.018;2022-12-18T06:14:29;-6.80;99.90
47600;DHT22;33323;52.124;6.018;2022-12-18T06:16:57;-6.80;99.90
47600;DHT22;33323;52.124;6.018;2022-12-18T06:19:24;-6.80;99.90
47600;DHT22;33323;52.124;6.018;2022-12-18T06:21:50;-6.80;99.90
47600;DHT22;33323;52.124;6.018;2022-12-18T06:24:17;-6.90;99.90
47600;DHT22;33323;52.124;6.018;2022-12-18T06:26:44;-6.90;99.90
47600;DHT22;33323;52.124;6.018;2022-12-18T06:29:12;-6.80;99.90
47600;DHT22;33323;52.124;6.018;2022-12-18T06:31:39;-6.90;99.90
47600;DHT22;33323;52.124;6.018;2022-12-18T06:34:06;-6.80;99.90
47600;DHT22;33323;52.124;6.018;2022-12-18T06:36:33;-6.80;99.90
47600;DHT22;33323;52.124;6.018;2022-12-18T06:39:00;-6.90;99.90
47600;DHT22;33323;52.124;6.018;2022-12-18T06:41:27;-6.90;99.90
47600;DHT22;33323;52.124;6.018;2022-12-18T06:43:54;-6.90;99.90
47600;DHT22;33323;52.124;6.018;2022-12-18T06:46:25;-6.90;99.90
47600;DHT22;33323;52.124;6.018;2022-12-18T06:48:52;-6.90;99.90
47600;DHT22;33323;52.124;6.018;2022-12-18T06:51:21;-6.90;99.90
47600;DHT22;33323;52.124;6.018;2022-12-18T06:53:49;-6.90;99.90
47600;DHT22;33323;52.124;6.018;2022-12-18T06:56:16;-6.90;99.90
47600;DHT22;33323;52.124;6.018;2022-12-18T06:58:43;-6.90;99.90
47600;DHT22;33323;52.124;6.018;2022-12-18T07:01:12;-6.80;99.90
47600;DHT22;33323;52.124;6.018;2022-12-18T07:03:40;-6.90;99.90
47600;DHT22;33323;52.124;6.018;2022-12-18T07:06:18;-6.90;99.90
47600;DHT22;33323;52.124;6.018;2022-12-18T07:08:47;-6.90;99.90
47600;DHT22;33323;52.124;6.018;2022-12-18T07:11:16;-7.00;99.90
47600;DHT22;33323;52.124;6.018;2022-12-18T07:13:43;-7.00;99.90
47600;DHT22;33323;52.124;6.018;2022-12-18T07:16:13;-7.10;99.90
47600;DHT22;33323;52.124;6.018;2022-12-18T07:18:50;-7.10;99.90
47600;DHT22;33323;52.124;6.018;2022-12-18T07:21:19;-7.00;99.90
47600;DHT22;33323;52.124;6.018;2022-12-18T07:23:46;-7.00;99.90
47600;DHT22;33323;52.124;6.018;2022-12-18T07:26:17;-6.90;99.90
47600;DHT22;33323;52.124;6.018;2022-12-18T07:28:45;-6.90;99.90
47600;DHT22;33323;52.124;6.018;2022-12-18T07:31:21;-6.80;99.90
47600;DHT22;33323;52.124;6.018;2022-12-18T07:33:50;-6.80;99.90
47600;DHT22;33323;52.124;6.018;2022-12-18T07:36:18;-6.90;99.90
47600;DHT22;33323;52.124;6.018;2022-12-18T07:38:49;-6.90;99.90
47600;DHT22;33323;52.124;6.018;2022-12-18T07:41:16;-6.90;99.90
47600;DHT22;33323;52.124;6.018;2022-12-18T07:43:44;-6.90;99.90
47600;DHT22;33323;52.124;6.018;2022-12-18T07:46:11;-7.00;99.90
47600;DHT22;33323;52.124;6.018;2022-12-18T07:48:41;-6.90;99.90
47600;DHT22;33323;52.124;6.018;2022-12-18T07:51:11;-6.80;99.90
47600;DHT22;33323;52.124;6.018;2022-12-18T07:53:38;-6.70;99.90
47600;DHT22;33323;52.124;6.018;2022-12-18T07:56:08;-6.80;99.90
47600;DHT22;33323;52.124;6.018;2022-12-18T07:58:54;-6.80;99.90
47600;DHT22;33323;52.124;6.018;2022-12-18T08:01:21;-6.80;99.90
47600;DHT22;33323;52.124;6.018;2022-12-18T08:03:48;-6.80;99.90
47600;DHT22;33323;52.124;6.018;2022-12-18T08:06:18;-6.70;99.90
47600;DHT22;33323;52.124;6.018;2022-12-18T08:08:54;-6.50;99.90
47600;DHT22;33323;52.124;6.018;2022-12-18T08:11:23;-6.50;99.90
47600;DHT22;33323;52.124;6.018;2022-12-18T08:13:52;-6.50;99.90
47600;DHT22;33323;52.124;6.018;2022-12-18T08:16:20;-6.50;99.90
47600;DHT22;33323;52.124;6.018;2022-12-18T08:18:48;-6.50;99.90
47600;DHT22;33323;52.124;6.018;2022-12-18T08:21:20;-6.50;99.90
47600;DHT22;33323;52.124;6.018;2022-12-18T08:23:53;-6.30;99.90
47600;DHT22;33323;52.124;6.018;2022-12-18T08:26:21;-6.10;99.90
47600;DHT22;33323;52.124;6.018;2022-12-18T08:28:49;-6.10;99.90
47600;DHT22;33323;52.124;6.018;2022-12-18T08:31:17;-6.10;99.90
47600;DHT22;33323;52.124;6.018;2022-12-18T08:33:48;-6.10;99.90
47600;DHT22;33323;52.124;6.018;2022-12-18T08:36:16;-5.80;99.90
47600;DHT22;33323;52.124;6.018;2022-12-18T08:38:44;-5.70;99.90
47600;DHT22;33323;52.124;6.018;2022-12-18T08:41:13;-5.60;99.90
47600;DHT22;33323;52.124;6.018;2022-12-18T08:43:40;-5.60;99.90
47600;DHT22;33323;52.124;6.018;2022-12-18T08:46:34;-5.40;99.90
47600;DHT22;33323;52.124;6.018;2022-12-18T08:49:03;-5.20;99.90
47600;DHT22;33323;52.124;6.018;2022-12-18T08:51:31;-5.10;99.90
47600;DHT22;33323;52.124;6.018;2022-12-18T08:53:59;-5.00;99.90
47600;DHT22;33323;52.124;6.018;2022-12-18T08:56:26;-4.90;99.90
47600;DHT22;33323;52.124;6.018;2022-12-18T08:58:54;-4.80;99.90
47600;DHT22;33323;52.124;6.018;2022-12-18T09:01:22;-4.80;99.90
47600;DHT22;33323;52.124;6.018;2022-12-18T09:03:50;-4.70;99.90
47600;DHT22;33323;52.124;6.018;2022-12-18T09:06:18;-4.70;99.90
47600;DHT22;33323;52.124;6.018;2022-12-18T09:08:46;-4.70;99.90
47600;DHT22;33323;52.124;6.018;2022-12-18T09:11:19;-4.50;99.90
47600;DHT22;33323;52.124;6.018;2022-12-18T09:13:48;-4.40;99.90
47600;DHT22;33323;52.124;6.018;2022-12-18T09:16:15;-4.10;99.90
47600;DHT22;33323;52.124;6.018;2022-12-18T09:18:43;-3.80;99.90
47600;DHT22;33323;52.124;6.018;2022-12-18T09:21:13;-3.50;99.90
47600;DHT22;33323;52.124;6.018;2022-12-18T09:23:41;-3.40;99.90
47600;DHT22;33323;52.124;6.018;2022-12-18T09:26:09;-3.20;99.90
47600;DHT22;33323;52.124;6.018;2022-12-18T09:28:36;-3.10;99.90
47600;DHT22;33323;52.124;6.018;2022-12-18T09:31:06;-3.20;99.90
47600;DHT22;33323;52.124;6.018;2022-12-18T09:33:35;-3.20;99.90
47600;DHT22;33323;52.124;6.018;2022-12-18T09:36:05;-3.30;99.90
47600;DHT22;33323;52.124;6.018;2022-12-18T09:38:34;-3.20;99.90
47600;DHT22;33323;52.124;6.018;2022-12-18T09:41:43;-3.10;99.90
47600;DHT22;33323;52.124;6.018;2022-12-18T09:44:24;-3.10;99.90
47600;DHT22;33323;52.124;6.018;2022-12-18T09:49:31;-2.90;99.90
47600;DHT22;33323;52.124;6.018;2022-12-18T09:52:14;-2.90;99.90
47600;DHT22;33323;52.124;6.018;2022-12-18T09:55:09;-2.90;99.90
47600;DHT22;33323;52.124;6.018;2022-12-18T09:57:39;-2.90;99.90
47600;DHT22;33323;52.124;6.018;2022-12-18T10:00:22;-2.90;99.90
47600;DHT22;33323;52.124;6.018;2022-12-18T10:03:01;-2.80;99.90
47600;DHT22;33323;52.124;6.018;2022-12-18T10:10:59;-2.70;99.90
47600;DHT22;33323;52.124;6.018;2022-12-18T10:13:54;-2.60;99.90
47600;DHT22;33323;52.124;6.018;2022-12-18T10:16:29;-2.60;99.90
47600;DHT22;33323;52.124;6.018;2022-12-18T10:27:29;-2.40;99.90
47600;DHT22;33323;52.124;6.018;2022-12-18T10:29:59;-2.40;99.90
47600;DHT22;33323;52.124;6.018;2022-12-18T10:32:29;-2.30;99.90
47600;DHT22;33323;52.124;6.018;2022-12-18T10:34:57;-2.30;99.90
47600;DHT22;33323;52.124;6.018;2022-12-18T10:37:29;-2.20;99.90
47600;DHT22;33323;52.124;6.018;2022-12-18T10:42:34;-2.20;99.90
47600;DHT22;33323;52.124;6.018;2022-12-18T10:45:06;-2.10;99.90
47600;DHT22;33323;52.124;6.018;2022-12-18T10:47:42;-2.10;99.90
47600;DHT22;33323;52.124;6.018;2022-12-18T10:53:27;-2.10;99.90
47600;DHT22;33323;52.124;6.018;2022-12-18T10:55:57;-2.00;99.90
47600;DHT22;33323;52.124;6.018;2022-12-18T11:01:13;-1.90;99.90
47600;DHT22;33323;52.124;6.018;2022-12-18T11:06:28;-1.90;99.90
47600;DHT22;33323;52.124;6.018;2022-12-18T11:09:02;-1.90;99.90
47600;DHT22;33323;52.124;6.018;2022-12-18T11:11:40;-1.80;99.90
47600;DHT22;33323;52.124;6.018;2022-12-18T11:14:15;-1.80;99.90
47600;DHT22;33323;52.124;6.018;2022-12-18T11:16:47;-1.80;99.90
47600;DHT22;33323;52.124;6.018;2022-12-18T11:19:37;-1.70;99.90
47600;DHT22;33323;52.124;6.018;2022-12-18T11:22:27;-1.70;99.90
47600;DHT22;33323;52.124;6.018;2022-12-18T11:25:05;-1.70;99.90
47600;DHT22;33323;52.124;6.018;2022-12-18T11:28:04;-1.60;99.90
47600;DHT22;33323;52.124;6.018;2022-12-18T11:34:18;-1.50;99.90
47600;DHT22;33323;52.124;6.018;2022-12-18T11:36:58;-1.50;99.90
47600;DHT22;33323;52.124;6.018;2022-12-18T11:39:38;-1.40;99.90
47600;DHT22;33323;52.124;6.018;2022-12-18T11:44:49;-1.40;99.90
47600;DHT22;33323;52.124;6.018;2022-12-18T11:50:02;-1.40;99.90
47600;DHT22;33323;52.124;6.018;2022-12-18T11:52:39;-1.30;99.90
47600;DHT22;33323;52.124;6.018;2022-12-18T11:55:28;-1.30;99.90
47600;DHT22;33323;52.124;6.018;2022-12-18T12:00:52;-1.30;99.90
47600;DHT22;33323;52.124;6.018;2022-12-18T12:03:45;-1.30;99.90
47600;DHT22;33323;52.124;6.018;2022-12-18T12:09:31;-1.20;99.90
47600;DHT22;33323;52.124;6.018;2022-12-18T12:19:46;-1.20;99.90
47600;DHT22;33323;52.124;6.018;2022-12-18T12:25:11;-1.10;99.90
47600;DHT22;33323;52.124;6.018;2022-12-18T12:34:24;-1.00;99.90
47600;DHT22;33323;52.124;6.018;2022-12-18T12:40:00;-0.90;99.90
47600;DHT22;33323;52.124;6.018;2022-12-18T12:42:56;-0.90;99.90
47600;DHT22;33323;52.124;6.018;2022-12-18T12:48:38;-0.80;99.90
47600;DHT22;33323;52.124;6.018;2022-12-18T12:51:41;-0.80;99.90
47600;DHT22;33323;52.124;6.018;2022-12-18T12:54:27;-0.80;99.90
47600;DHT22;33323;52.124;6.018;2022-12-18T12:57:08;-0.80;99.90
47600;DHT22;33323;52.124;6.018;2022-12-18T13:07:56;-0.70;99.90
47600;DHT22;33323;52.124;6.018;2022-12-18T13:10:32;-0.70;99.90
47600;DHT22;33323;52.124;6.018;2022-12-18T13:13:11;-0.70;99.90
47600;DHT22;33323;52.124;6.018;2022-12-18T13:18:23;-0.60;99.90
47600;DHT22;33323;52.124;6.018;2022-12-18T13:21:01;-0.60;99.90
47600;DHT22;33323;52.124;6.018;2022-12-18T13:23:36;-0.60;99.90
47600;DHT22;33323;52.124;6.018;2022-12-18T13:34:17;-0.50;99.90
47600;DHT22;33323;52.124;6.018;2022-12-18T13:45:47;-0.50;99.90
47600;DHT22;33323;52.124;6.018;2022-12-18T13:48:19;-0.50;99.90
47600;DHT22;33323;52.124;6.018;2022-12-18T13:51:09;-0.50;99.90
47600;DHT22;33323;52.124;6.018;2022-12-18T13:53:42;-0.50;99.90
47600;DHT22;33323;52.124;6.018;2022-12-18T13:56:32;-0.50;99.90
47600;DHT22;33323;52.124;6.018;2022-12-18T14:01:58;-0.50;99.90
47600;DHT22;33323;52.124;6.018;2022-12-18T14:04:34;-0.50;99.90
47600;DHT22;33323;52.124;6.018;2022-12-18T14:07:10;-0.40;99.90
47600;DHT22;33323;52.124;6.018;2022-12-18T14:09:46;-0.50;99.90
47600;DHT22;33323;52.124;6.018;2022-12-18T14:12:18;-0.50;99.90
47600;DHT22;33323;52.124;6.018;2022-12-18T14:17:59;-0.40;99.90
47600;DHT22;33323;52.124;6.018;2022-12-18T14:20:30;-0.50;99.90
47600;DHT22;33323;52.124;6.018;2022-12-18T14:22:58;-0.40;99.90
47600;DHT22;33323;52.124;6.018;2022-12-18T14:25:28;-0.50;99.90
47600;DHT22;33323;52.124;6.018;2022-12-18T14:28:12;-0.40;99.90
47600;DHT22;33323;52.124;6.018;2022-12-18T14:30:42;-0.40;99.90
47600;DHT22;33323;52.124;6.018;2022-12-18T14:33:20;-0.40;99.90
47600;DHT22;33323;52.124;6.018;2022-12-18T14:35:55;-0.40;99.90
47600;DHT22;33323;52.124;6.018;2022-12-18T14:38:39;-0.40;99.90
47600;DHT22;33323;52.124;6.018;2022-12-18T14:43:40;-0.40;99.90
47600;DHT22;33323;52.124;6.018;2022-12-18T14:51:52;-0.40;99.90
47600;DHT22;33323;52.124;6.018;2022-12-18T14:54:22;-0.40;99.90
47600;DHT22;33323;52.124;6.018;2022-12-18T14:59:26;-0.40;99.90
47600;DHT22;33323;52.124;6.018;2022-12-18T15:02:18;-0.40;99.90
47600;DHT22;33323;52.124;6.018;2022-12-18T15:05:03;-0.30;99.90
47600;DHT22;33323;52.124;6.018;2022-12-18T15:07:47;-0.40;99.90
47600;DHT22;33323;52.124;6.018;2022-12-18T15:20:46;-0.30;99.90
47600;DHT22;33323;52.124;6.018;2022-12-18T15:26:18;-0.30;99.90
47600;DHT22;33323;52.124;6.018;2022-12-18T15:28:55;-0.30;99.90
47600;DHT22;33323;52.124;6.018;2022-12-18T15:36:26;-0.30;99.90
47600;DHT22;33323;52.124;6.018;2022-12-18T15:38:54;-0.30;99.90
47600;DHT22;33323;52.124;6.018;2022-12-18T15:41:33;-0.30;99.90
47600;DHT22;33323;52.124;6.018;2022-12-18T15:44:02;-0.30;99.90
47600;DHT22;33323;52.124;6.018;2022-12-18T15:46:30;-0.30;99.90
47600;DHT22;33323;52.124;6.018;2022-12-18T15:48:57;-0.30;99.90
47600;DHT22;33323;52.124;6.018;2022-12-18T15:51:38;-0.30;99.90
47600;DHT22;33323;52.124;6.018;2022-12-18T15:54:08;-0.30;99.90
47600;DHT22;33323;52.124;6.018;2022-12-18T15:56:40;-0.30;99.90
47600;DHT22;33323;52.124;6.018;2022-12-18T15:59:25;-0.30;99.90
47600;DHT22;33323;52.124;6.018;2022-12-18T16:01:53;-0.30;99.90
47600;DHT22;33323;52.124;6.018;2022-12-18T16:04:21;-0.30;99.90
47600;DHT22;33323;52.124;6.018;2022-12-18T16:06:50;-0.30;99.90
47600;DHT22;33323;52.124;6.018;2022-12-18T16:09:38;-0.30;99.90
47600;DHT22;33323;52.124;6.018;2022-12-18T16:12:08;-0.30;99.90
47600;DHT22;33323;52.124;6.018;2022-12-18T16:14:40;-0.40;99.90
47600;DHT22;33323;52.124;6.018;2022-12-18T16:17:10;-0.30;99.90
47600;DHT22;33323;52.124;6.018;2022-12-18T16:19:38;-0.30;99.90
47600;DHT22;33323;52.124;6.018;2022-12-18T16:22:20;-0.30;99.90
47600;DHT22;33323;52.124;6.018;2022-12-18T16:24:50;-0.30;99.90
47600;DHT22;33323;52.124;6.018;2022-12-18T16:27:18;-0.30;99.90
47600;DHT22;33323;52.124;6.018;2022-12-18T16:29:45;-0.30;99.90
47600;DHT22;33323;52.124;6.018;2022-12-18T16:32:15;-0.30;99.90
47600;DHT22;33323;52.124;6.018;2022-12-18T16:34:46;-0.30;99.90
47600;DHT22;33323;52.124;6.018;2022-12-18T16:37:14;-0.20;99.90
47600;DHT22;33323;52.124;6.018;2022-12-18T16:39:43;-0.20;99.90
47600;DHT22;33323;52.124;6.018;2022-12-18T16:42:16;-0.20;99.90
47600;DHT22;33323;52.124;6.018;2022-12-18T16:44:46;-0.20;99.90
47600;DHT22;33323;52.124;6.018;2022-12-18T16:47:14;-0.20;99.90
47600;DHT22;33323;52.124;6.018;2022-12-18T16:49:42;-0.10;99.90
47600;DHT22;33323;52.124;6.018;2022-12-18T16:52:12;-0.10;99.90
47600;DHT22;33323;52.124;6.018;2022-12-18T16:54:39;-0.10;99.90
47600;DHT22;33323;52.124;6.018;2022-12-18T16:57:08;-0.10;99.90
47600;DHT22;33323;52.124;6.018;2022-12-18T16:59:36;-0.10;99.90
47600;DHT22;33323;52.124;6.018;2022-12-18T17:02:03;-0.10;99.90
47600;DHT22;33323;52.124;6.018;2022-12-18T17:04:31;-0.10;99.90
47600;DHT22;33323;52.124;6.018;2022-12-18T17:06:57;-0.10;99.90
47600;DHT22;33323;52.124;6.018;2022-12-18T17:09:25;-0.20;99.90
47600;DHT22;33323;52.124;6.018;2022-12-18T17:11:52;-0.10;99.90
47600;DHT22;33323;52.124;6.018;2022-12-18T17:14:22;-0.20;99.90
47600;DHT22;33323;52.124;6.018;2022-12-18T17:16:51;-0.20;99.90
47600;DHT22;33323;52.124;6.018;2022-12-18T17:19:38;-0.20;99.90
47600;DHT22;33323;52.124;6.018;2022-12-18T17:22:05;-0.10;99.90
47600;DHT22;33323;52.124;6.018;2022-12-18T17:24:33;-0.20;99.90
47600;DHT22;33323;52.124;6.018;2022-12-18T17:27:02;-0.20;99.90
47600;DHT22;33323;52.124;6.018;2022-12-18T17:29:29;-0.20;99.90
47600;DHT22;33323;52.124;6.018;2022-12-18T17:31:56;-0.20;99.90
47600;DHT22;33323;52.124;6.018;2022-12-18T17:34:26;-0.20;99.90
47600;DHT22;33323;52.124;6.018;2022-12-18T17:36:54;-0.20;99.90
47600;DHT22;33323;52.124;6.018;2022-12-18T17:39:21;-0.20;99.90
47600;DHT22;33323;52.124;6.018;2022-12-18T17:41:48;-0.20;99.90
47600;DHT22;33323;52.124;6.018;2022-12-18T17:44:16;-0.20;99.90
47600;DHT22;33323;52.124;6.018;2022-12-18T17:46:43;-0.20;99.90
47600;DHT22;33323;52.124;6.018;2022-12-18T17:49:12;-0.30;99.90
47600;DHT22;33323;52.124;6.018;2022-12-18T17:51:40;-0.30;99.90
47600;DHT22;33323;52.124;6.018;2022-12-18T17:54:09;-0.30;99.90
47600;DHT22;33323;52.124;6.018;2022-12-18T17:56:37;-0.30;99.90
47600;DHT22;33323;52.124;6.018;2022-12-18T17:59:05;-0.30;99.90
47600;DHT22;33323;52.124;6.018;2022-12-18T18:01:33;-0.30;99.90
47600;DHT22;33323;52.124;6.018;2022-12-18T18:04:06;-0.30;99.90
47600;DHT22;33323;52.124;6.018;2022-12-18T18:06:33;-0.30;99.90
47600;DHT22;33323;52.124;6.018;2022-12-18T18:09:05;-0.30;99.90
47600;DHT22;33323;52.124;6.018;2022-12-18T18:11:42;-0.30;99.90
47600;DHT22;33323;52.124;6.018;2022-12-18T18:14:29;-0.30;99.90
47600;DHT22;33323;52.124;6.018;2022-12-18T18:16:57;-0.30;99.90
47600;DHT22;33323;52.124;6.018;2022-12-18T18:19:30;-0.30;99.90
47600;DHT22;33323;52.124;6.018;2022-12-18T18:21:57;-0.30;99.90
47600;DHT22;33323;52.124;6.018;2022-12-18T18:24:24;-0.30;99.90
47600;DHT22;33323;52.124;6.018;2022-12-18T18:26:52;-0.30;99.90
47600;DHT22;33323;52.124;6.018;2022-12-18T18:29:24;-0.30;99.90
47600;DHT22;33323;52.124;6.018;2022-12-18T18:31:52;-0.40;99.90
47600;DHT22;33323;52.124;6.018;2022-12-18T18:34:22;-0.30;99.90